sensor_id;sensor_type;location;lat;lon;timestamp;temperature;humidity
12374;DHT22;6251;51.762;8.660;2024-03-02T00:08:23;5.60;99.90
12374;DHT22;6251;51.762;8.660;2024-03-02T02:10:14;5.30;99.90
12374;DHT22;6251;51.762;8.660;2024-03-02T03:51:48;5.30;99.90
12374;DHT22;6251;51.762;8.660;2024-03-02T05:03:05;5.40;99.90
12374;DHT22;6251;51.762;8.660;2024-03-02T05:13:05;5.40;99.90
12374;DHT22;6251;51.762;8.660;2024-03-02T05:23:06;5.30;99.90
12374;DHT22;6251;51.762;8.660;2024-03-02T05:33:06;5.30;99.90
12374;DHT22;6251;51.762;8.660;2024-03-02T05:43:07;5.30;99.90
12374;DHT22;6251;51.762;8.660;2024-03-02T05:53:08;5.20;99.90
12374;DHT22;6251;51.762;8.660;2024-03-02T06:03:08;5.10;99.90
12374;DHT22;6251;51.762;8.660;2024-03-02T06:13:09;5.10;99.90
12374;DHT22;6251;51.762;8.660;2024-03-02T06:23:10;5.20;99.90
12374;DHT22;6251;51.762;8.660;2024-03-02T06:33:11;5.20;99.90
12374;DHT22;6251;51.762;8.660;2024-03-02T06:43:11;5.40;99.90
12374;DHT22;6251;51.762;8.660;2024-03-02T06:53:12;5.40;99.90
12374;DHT22;6251;51.762;8.660;2024-03-02T07:03:13;5.40;99.90
12374;DHT22;6251;51.762;8.660;2024-03-02T07:13:14;5.50;99.90
12374;DHT22;6251;51.762;8.660;2024-03-02T07:23:14;5.40;99.90
12374;DHT22;6251;51.762;8.660;2024-03-02T07:33:15;5.40;99.90
12374;DHT22;6251;51.762;8.660;2024-03-02T07:43:17;5.40;99.90
12374;DHT22;6251;51.762;8.660;2024-03-02T07:53:18;5.40;99.90
12374;DHT22;6251;51.762;8.660;2024-03-02T08:03:18;5.50;99.90
12374;DHT22;6251;51.762;8.660;2024-03-02T08:13:19;5.60;99.90
12374;DHT22;6251;51.762;8.660;2024-03-02T08:23:20;5.70;99.90
12374;DHT22;6251;51.762;8.660;2024-03-02T08:33:20;5.90;99.90
12374;DHT22;6251;51.762;8.660;2024-03-02T08:43:21;6.20;99.90
12374;DHT22;6251;51.762;8.660;2024-03-02T08:53:22;6.60;99.90
12374;DHT22;6251;51.762;8.660;2024-03-02T09:03:23;6.90;99.90
12374;DHT22;6251;51.762;8.660;2024-03-02T09:13:24;7.30;99.90
12374;DHT22;6251;51.762;8.660;2024-03-02T09:23:24;7.60;99.90
12374;DHT22;6251;51.762;8.660;2024-03-02T09:33:25;7.80;99.90
12374;DHT22;6251;51.762;8.660;2024-03-02T09:43:26;8.10;99.90
12374;DHT22;6251;51.762;8.660;2024-03-02T09:53:31;8.40;99.90
12374;DHT22;6251;51.762;8.660;2024-03-02T10:03:33;8.60;99.90
12374;DHT22;6251;51.762;8.660;2024-03-02T10:13:34;8.70;99.90
12374;DHT22;6251;51.762;8.660;2024-03-02T10:23:35;8.90;99.90
12374;DHT22;6251;51.762;8.660;2024-03-02T10:33:36;9.10;99.90
12374;DHT22;6251;51.762;8.660;2024-03-02T10:43:37;9.30;99.90
12374;DHT22;6251;51.762;8.660;2024-03-02T10:53:38;9.60;99.90
12374;DHT22;6251;51.762;8.660;2024-03-02T11:03:39;10.00;99.90
12374;DHT22;6251;51.762;8.660;2024-03-02T11:13:42;10.40;99.90
12374;DHT22;6251;51.762;8.660;2024-03-02T11:23:48;10.80;99.90
12374;DHT22;6251;51.762;8.660;2024-03-02T11:33:48;11.10;99.90
12374;DHT22;6251;51.762;8.660;2024-03-02T11:43:50;11.40;99.90
12374;DHT22;6251;51.762;8.660;2024-03-02T11:53:51;11.60;99.90
12374;DHT22;6251;51.762;8.660;2024-03-02T12:03:54;11.70;99.90
12374;DHT22;6251;51.762;8.660;2024-03-02T12:13:55;11.70;99.90
12374;DHT22;6251;51.762;8.660;2024-03-02T12:23:57;11.90;99.90
12374;DHT22;6251;51.762;8.660;2024-03-02T12:33:58;12.40;99.90
12374;DHT22;6251;51.762;8.660;2024-03-02T12:43:59;12.70;99.90
12374;DHT22;6251;51.762;8.660;2024-03-02T12:53:59;12.70;99.90
12374;DHT22;6251;51.762;8.660;2024-03-02T13:04:00;12.70;99.90
12374;DHT22;6251;51.762;8.660;2024-03-02T13:14:01;12.60;99.90
12374;DHT22;6251;51.762;8.660;2024-03-02T13:24:01;12.60;99.90
12374;DHT22;6251;51.762;8.660;2024-03-02T13:34:03;12.50;99.90
12374;DHT22;6251;51.762;8.660;2024-03-02T13:44:04;12.70;99.90
12374;DHT22;6251;51.762;8.660;2024-03-02T13:54:04;12.80;99.90
12374;DHT22;6251;51.762;8.660;2024-03-02T14:04:05;12.90;99.90
12374;DHT22;6251;51.762;8.660;2024-03-02T14:14:06;13.00;99.90
12374;DHT22;6251;51.762;8.660;2024-03-02T14:24:07;13.00;99.90
12374;DHT22;6251;51.762;8.660;2024-03-02T14:34:07;13.00;99.90
12374;DHT22;6251;51.762;8.660;2024-03-02T14:44:08;13.00;99.90
12374;DHT22;6251;51.762;8.660;2024-03-02T14:54:09;13.00;99.90
12374;DHT22;6251;51.762;8.660;2024-03-02T15:04:09;13.00;99.90
12374;DHT22;6251;51.762;8.660;2024-03-02T15:14:10;13.20;99.90
12374;DHT22;6251;51.762;8.660;2024-03-02T15:24:12;13.30;99.90
12374;DHT22;6251;51.762;8.660;2024-03-02T15:34:12;13.20;99.90
12374;DHT22;6251;51.762;8.660;2024-03-02T15:44:13;13.10;99.90
12374;DHT22;6251;51.762;8.660;2024-03-02T15:54:14;12.90;99.90
12374;DHT22;6251;51.762;8.660;2024-03-02T16:04:14;12.70;99.90
12374;DHT22;6251;51.762;8.660;2024-03-02T16:14:15;12.40;99.90
12374;DHT22;6251;51.762;8.660;2024-03-02T16:24:16;12.20;99.90
12374;DHT22;6251;51.762;8.660;2024-03-02T16:34:17;12.00;99.90
12374;DHT22;6251;51.762;8.660;2024-03-02T16:44:18;11.70;99.90
12374;DHT22;6251;51.762;8.660;2024-03-02T16:54:19;11.40;99.90
12374;DHT22;6251;51.762;8.660;2024-03-02T17:04:19;11.00;99.90
12374;DHT22;6251;51.762;8.660;2024-03-02T17:14:20;10.70;99.90
12374;DHT22;6251;51.762;8.660;2024-03-02T17:24:20;10.50;99.90
12374;DHT22;6251;51.762;8.660;2024-03-02T17:34:22;10.20;99.90
12374;DHT22;6251;51.762;8.660;2024-03-02T17:44:24;9.90;99.90
12374;DHT22;6251;51.762;8.660;2024-03-02T17:54:24;9.70;99.90
12374;DHT22;6251;51.762;8.660;2024-03-02T18:04:25;9.30;99.90
12374;DHT22;6251;51.762;8.660;2024-03-02T18:14:26;9.00;99.90
12374;DHT22;6251;51.762;8.660;2024-03-02T18:24:27;8.80;99.90
12374;DHT22;6251;51.762;8.660;2024-03-02T18:34:29;8.60;99.90
12374;DHT22;6251;51.762;8.660;2024-03-02T18:44:30;8.40;99.90
12374;DHT22;6251;51.762;8.660;2024-03-02T18:54:30;8.20;99.90
12374;DHT22;6251;51.762;8.660;2024-03-02T19:04:31;8.10;99.90
12374;DHT22;6251;51.762;8.660;2024-03-02T19:14:31;8.00;99.90
12374;DHT22;6251;51.762;8.660;2024-03-02T19:24:38;7.90;99.90
12374;DHT22;6251;51.762;8.660;2024-03-02T19:34:39;7.80;99.90
12374;DHT22;6251;51.762;8.660;2024-03-02T19:44:40;7.70;99.90
12374;DHT22;6251;51.762;8.660;2024-03-02T19:54:43;7.60;99.90
12374;DHT22;6251;51.762;8.660;2024-03-02T20:04:44;7.50;99.90
12374;DHT22;6251;51.762;8.660;2024-03-02T20:14:45;7.40;99.90
12374;DHT22;6251;51.762;8.660;2024-03-02T20:24:46;7.40;99.90
12374;DHT22;6251;51.762;8.660;2024-03-02T20:34:46;7.40;99.90
12374;DHT22;6251;51.762;8.660;2024-03-02T20:44:47;7.50;99.90
12374;DHT22;6251;51.762;8.660;2024-03-02T20:54:48;7.60;99.90
12374;DHT22;6251;51.762;8.660;2024-03-02T21:04:48;7.80;99.90
12374;DHT22;6251;51.762;8.660;2024-03-02T21:14:49;7.80;99.90
12374;DHT22;6251;51.762;8.660;2024-03-02T21:24:50;7.80;99.90
12374;DHT22;6251;51.762;8.660;2024-03-02T21:34:50;7.80;99.90
12374;DHT22;6251;51.762;8.660;2024-03-02T21:44:51;7.70;99.90
12374;DHT22;6251;51.762;8.660;2024-03-02T21:54:51;7.70;99.90
